sensor_id;sensor_type;location;lat;lon;timestamp;temperature;humidity
5683;DHT22;2864;49.220;8.654;2022-08-03T00:01:00;18.60;83.80
5683;DHT22;2864;49.220;8.654;2022-08-03T00:03:25;18.60;84.40
5683;DHT22;2864;49.220;8.654;2022-08-03T00:05:51;18.60;84.60
5683;DHT22;2864;49.220;8.654;2022-08-03T00:08:17;18.60;84.90
5683;DHT22;2864;49.220;8.654;2022-08-03T00:10:42;18.60;84.90
5683;DHT22;2864;49.220;8.654;2022-08-03T00:13:08;18.60;84.90
5683;DHT22;2864;49.220;8.654;2022-08-03T00:15:35;18.60;84.30
5683;DHT22;2864;49.220;8.654;2022-08-03T00:18:00;19.30;84.90
5683;DHT22;2864;49.220;8.654;2022-08-03T00:20:26;18.70;83.90
5683;DHT22;2864;49.220;8.654;2022-08-03T00:22:51;18.70;84.60
5683;DHT22;2864;49.220;8.654;2022-08-03T00:25:17;18.60;84.20
5683;DHT22;2864;49.220;8.654;2022-08-03T00:27:43;18.60;84.10
5683;DHT22;2864;49.220;8.654;2022-08-03T00:30:09;18.60;83.80
5683;DHT22;2864;49.220;8.654;2022-08-03T00:32:34;18.60;83.90
5683;DHT22;2864;49.220;8.654;2022-08-03T00:35:00;18.60;83.50
5683;DHT22;2864;49.220;8.654;2022-08-03T00:37:25;18.70;83.50
5683;DHT22;2864;49.220;8.654;2022-08-03T00:39:51;18.60;83.20
5683;DHT22;2864;49.220;8.654;2022-08-03T00:42:16;18.60;83.40
5683;DHT22;2864;49.220;8.654;2022-08-03T00:44:43;18.60;83.80
5683;DHT22;2864;49.220;8.654;2022-08-03T00:47:09;18.60;83.90
5683;DHT22;2864;49.220;8.654;2022-08-03T00:49:36;18.60;83.90
5683;DHT22;2864;49.220;8.654;2022-08-03T00:52:03;18.60;83.90
5683;DHT22;2864;49.220;8.654;2022-08-03T00:54:29;18.60;83.80
5683;DHT22;2864;49.220;8.654;2022-08-03T00:56:54;18.60;84.00
5683;DHT22;2864;49.220;8.654;2022-08-03T00:59:20;18.50;83.90
5683;DHT22;2864;49.220;8.654;2022-08-03T01:01:46;18.60;84.60
5683;DHT22;2864;49.220;8.654;2022-08-03T01:04:12;18.40;84.90
5683;DHT22;2864;49.220;8.654;2022-08-03T01:06:42;18.40;85.10
5683;DHT22;2864;49.220;8.654;2022-08-03T01:09:30;18.40;85.20
5683;DHT22;2864;49.220;8.654;2022-08-03T01:12:09;18.30;85.40
5683;DHT22;2864;49.220;8.654;2022-08-03T01:14:45;18.30;85.30
5683;DHT22;2864;49.220;8.654;2022-08-03T01:19:59;18.30;85.50
5683;DHT22;2864;49.220;8.654;2022-08-03T01:25:54;18.40;85.60
5683;DHT22;2864;49.220;8.654;2022-08-03T01:28:55;18.40;85.70
5683;DHT22;2864;49.220;8.654;2022-08-03T01:31:26;18.40;85.60
5683;DHT22;2864;49.220;8.654;2022-08-03T01:33:58;18.40;85.60
5683;DHT22;2864;49.220;8.654;2022-08-03T01:36:31;18.40;85.70
5683;DHT22;2864;49.220;8.654;2022-08-03T01:39:00;18.40;85.60
5683;DHT22;2864;49.220;8.654;2022-08-03T01:41:32;18.40;85.50
5683;DHT22;2864;49.220;8.654;2022-08-03T01:44:01;18.50;85.60
5683;DHT22;2864;49.220;8.654;2022-08-03T01:46:29;18.30;85.70
5683;DHT22;2864;49.220;8.654;2022-08-03T01:48:56;18.30;85.80
5683;DHT22;2864;49.220;8.654;2022-08-03T01:51:23;18.30;85.80
5683;DHT22;2864;49.220;8.654;2022-08-03T01:53:50;18.30;85.90
5683;DHT22;2864;49.220;8.654;2022-08-03T01:56:21;18.30;86.10
5683;DHT22;2864;49.220;8.654;2022-08-03T01:58:48;18.30;86.20
5683;DHT22;2864;49.220;8.654;2022-08-03T02:01:15;18.20;86.90
5683;DHT22;2864;49.220;8.654;2022-08-03T02:03:43;18.30;86.60
5683;DHT22;2864;49.220;8.654;2022-08-03T02:06:11;18.20;86.50
5683;DHT22;2864;49.220;8.654;2022-08-03T02:08:38;18.10;86.50
5683;DHT22;2864;49.220;8.654;2022-08-03T02:11:05;18.10;86.50
5683;DHT22;2864;49.220;8.654;2022-08-03T02:13:32;18.10;86.90
5683;DHT22;2864;49.220;8.654;2022-08-03T02:16:00;18.00;87.50
5683;DHT22;2864;49.220;8.654;2022-08-03T02:18:28;18.00;87.70
5683;DHT22;2864;49.220;8.654;2022-08-03T02:20:55;18.00;87.90
5683;DHT22;2864;49.220;8.654;2022-08-03T02:23:21;18.00;87.90
5683;DHT22;2864;49.220;8.654;2022-08-03T02:25:52;17.90;88.20
5683;DHT22;2864;49.220;8.654;2022-08-03T02:28:27;17.80;88.30
5683;DHT22;2864;49.220;8.654;2022-08-03T02:30:54;17.80;88.50
5683;DHT22;2864;49.220;8.654;2022-08-03T02:33:29;17.70;89.10
5683;DHT22;2864;49.220;8.654;2022-08-03T02:35:57;17.70;89.70
5683;DHT22;2864;49.220;8.654;2022-08-03T02:38:28;17.70;89.70
5683;DHT22;2864;49.220;8.654;2022-08-03T02:40:57;17.60;89.90
5683;DHT22;2864;49.220;8.654;2022-08-03T02:43:24;17.60;90.20
5683;DHT22;2864;49.220;8.654;2022-08-03T02:45:52;17.60;90.40
5683;DHT22;2864;49.220;8.654;2022-08-03T02:48:22;17.60;90.40
5683;DHT22;2864;49.220;8.654;2022-08-03T02:50:52;17.50;90.50
5683;DHT22;2864;49.220;8.654;2022-08-03T02:53:18;17.50;90.70
5683;DHT22;2864;49.220;8.654;2022-08-03T02:55:46;17.50;90.70
5683;DHT22;2864;49.220;8.654;2022-08-03T02:58:13;17.50;90.80
5683;DHT22;2864;49.220;8.654;2022-08-03T03:00:40;17.50;90.60
5683;DHT22;2864;49.220;8.654;2022-08-03T03:03:09;17.40;90.60
5683;DHT22;2864;49.220;8.654;2022-08-03T03:05:35;17.40;90.70
5683;DHT22;2864;49.220;8.654;2022-08-03T03:08:01;17.40;90.90
5683;DHT22;2864;49.220;8.654;2022-08-03T03:10:27;17.40;91.10
5683;DHT22;2864;49.220;8.654;2022-08-03T03:12:57;17.30;91.10
5683;DHT22;2864;49.220;8.654;2022-08-03T03:15:25;17.30;91.50
5683;DHT22;2864;49.220;8.654;2022-08-03T03:17:52;17.30;91.80
5683;DHT22;2864;49.220;8.654;2022-08-03T03:20:20;17.20;91.80
5683;DHT22;2864;49.220;8.654;2022-08-03T03:22:47;17.20;91.90
5683;DHT22;2864;49.220;8.654;2022-08-03T03:25:14;17.20;92.10
5683;DHT22;2864;49.220;8.654;2022-08-03T03:27:40;17.20;92.30
5683;DHT22;2864;49.220;8.654;2022-08-03T03:30:06;17.20;92.30
5683;DHT22;2864;49.220;8.654;2022-08-03T03:32:32;17.20;92.50
5683;DHT22;2864;49.220;8.654;2022-08-03T03:34:59;17.30;92.50
5683;DHT22;2864;49.220;8.654;2022-08-03T03:37:25;17.30;92.50
5683;DHT22;2864;49.220;8.654;2022-08-03T03:39:54;17.30;92.50
5683;DHT22;2864;49.220;8.654;2022-08-03T03:42:20;17.30;92.40
5683;DHT22;2864;49.220;8.654;2022-08-03T03:44:46;17.30;92.60
5683;DHT22;2864;49.220;8.654;2022-08-03T03:47:12;17.30;92.60
5683;DHT22;2864;49.220;8.654;2022-08-03T03:49:39;17.30;92.60
5683;DHT22;2864;49.220;8.654;2022-08-03T03:52:05;17.20;92.70
5683;DHT22;2864;49.220;8.654;2022-08-03T03:54:41;17.20;92.90
5683;DHT22;2864;49.220;8.654;2022-08-03T03:57:08;18.00;93.30
5683;DHT22;2864;49.220;8.654;2022-08-03T03:59:40;17.30;93.30
5683;DHT22;2864;49.220;8.654;2022-08-03T04:02:07;17.30;92.90
5683;DHT22;2864;49.220;8.654;2022-08-03T04:04:33;17.20;92.90
5683;DHT22;2864;49.220;8.654;2022-08-03T04:07:18;17.20;93.10
5683;DHT22;2864;49.220;8.654;2022-08-03T04:10:04;17.20;93.10
5683;DHT22;2864;49.220;8.654;2022-08-03T04:12:53;17.30;93.00
5683;DHT22;2864;49.220;8.654;2022-08-03T04:15:21;17.30;93.00
5683;DHT22;2864;49.220;8.654;2022-08-03T04:17:49;17.30;93.00
5683;DHT22;2864;49.220;8.654;2022-08-03T04:20:18;17.30;93.00
5683;DHT22;2864;49.220;8.654;2022-08-03T04:22:48;17.20;93.10
5683;DHT22;2864;49.220;8.654;2022-08-03T04:25:15;17.30;93.20
5683;DHT22;2864;49.220;8.654;2022-08-03T04:27:44;17.30;93.20
5683;DHT22;2864;49.220;8.654;2022-08-03T04:30:10;17.40;93.10
5683;DHT22;2864;49.220;8.654;2022-08-03T04:32:37;17.40;93.10
5683;DHT22;2864;49.220;8.654;2022-08-03T04:35:04;17.60;93.10
5683;DHT22;2864;49.220;8.654;2022-08-03T04:37:32;17.50;93.00
5683;DHT22;2864;49.220;8.654;2022-08-03T04:40:01;17.50;93.10
5683;DHT22;2864;49.220;8.654;2022-08-03T04:42:27;17.50;92.80
5683;DHT22;2864;49.220;8.654;2022-08-03T04:44:54;17.60;92.70
5683;DHT22;2864;49.220;8.654;2022-08-03T04:47:20;17.70;92.50
5683;DHT22;2864;49.220;8.654;2022-08-03T04:49:46;17.70;92.40
5683;DHT22;2864;49.220;8.654;2022-08-03T04:52:12;17.80;92.50
5683;DHT22;2864;49.220;8.654;2022-08-03T04:54:39;17.80;92.20
5683;DHT22;2864;49.220;8.654;2022-08-03T04:57:05;17.90;92.00
5683;DHT22;2864;49.220;8.654;2022-08-03T04:59:30;17.90;91.90
5683;DHT22;2864;49.220;8.654;2022-08-03T05:01:56;18.00;91.90
5683;DHT22;2864;49.220;8.654;2022-08-03T05:04:24;18.00;92.00
5683;DHT22;2864;49.220;8.654;2022-08-03T05:06:50;18.50;92.10
5683;DHT22;2864;49.220;8.654;2022-08-03T05:09:15;19.10;92.30
5683;DHT22;2864;49.220;8.654;2022-08-03T05:11:41;18.20;91.40
5683;DHT22;2864;49.220;8.654;2022-08-03T05:14:06;18.30;91.20
5683;DHT22;2864;49.220;8.654;2022-08-03T05:16:32;18.30;91.20
5683;DHT22;2864;49.220;8.654;2022-08-03T05:18:57;18.40;91.00
5683;DHT22;2864;49.220;8.654;2022-08-03T05:21:23;18.50;90.90
5683;DHT22;2864;49.220;8.654;2022-08-03T05:23:48;18.50;90.70
5683;DHT22;2864;49.220;8.654;2022-08-03T05:26:14;18.70;90.60
5683;DHT22;2864;49.220;8.654;2022-08-03T05:28:39;18.80;90.60
5683;DHT22;2864;49.220;8.654;2022-08-03T05:31:05;18.90;90.40
5683;DHT22;2864;49.220;8.654;2022-08-03T05:33:31;19.10;90.10
5683;DHT22;2864;49.220;8.654;2022-08-03T05:35:56;19.20;89.40
5683;DHT22;2864;49.220;8.654;2022-08-03T05:38:22;19.30;89.20
5683;DHT22;2864;49.220;8.654;2022-08-03T05:40:47;19.50;89.00
5683;DHT22;2864;49.220;8.654;2022-08-03T05:43:13;19.60;88.00
5683;DHT22;2864;49.220;8.654;2022-08-03T05:45:38;19.80;87.90
5683;DHT22;2864;49.220;8.654;2022-08-03T05:48:05;19.90;87.90
5683;DHT22;2864;49.220;8.654;2022-08-03T05:50:30;20.00;87.00
5683;DHT22;2864;49.220;8.654;2022-08-03T05:52:56;20.00;86.20
5683;DHT22;2864;49.220;8.654;2022-08-03T05:55:24;20.10;86.20
5683;DHT22;2864;49.220;8.654;2022-08-03T05:57:50;20.20;85.70
5683;DHT22;2864;49.220;8.654;2022-08-03T06:00:16;20.30;85.30
5683;DHT22;2864;49.220;8.654;2022-08-03T06:02:42;20.30;84.90
5683;DHT22;2864;49.220;8.654;2022-08-03T06:05:08;20.50;85.00
5683;DHT22;2864;49.220;8.654;2022-08-03T06:07:35;20.60;83.80
5683;DHT22;2864;49.220;8.654;2022-08-03T06:10:01;20.70;82.90
5683;DHT22;2864;49.220;8.654;2022-08-03T06:12:27;20.80;82.60
5683;DHT22;2864;49.220;8.654;2022-08-03T06:14:53;20.90;82.70
5683;DHT22;2864;49.220;8.654;2022-08-03T06:17:19;21.00;82.30
5683;DHT22;2864;49.220;8.654;2022-08-03T06:19:45;21.10;82.10
5683;DHT22;2864;49.220;8.654;2022-08-03T06:22:10;21.20;81.90
5683;DHT22;2864;49.220;8.654;2022-08-03T06:24:36;21.30;81.30
5683;DHT22;2864;49.220;8.654;2022-08-03T06:27:01;21.40;80.90
5683;DHT22;2864;49.220;8.654;2022-08-03T06:29:27;21.60;80.70
5683;DHT22;2864;49.220;8.654;2022-08-03T06:31:53;21.70;81.10
5683;DHT22;2864;49.220;8.654;2022-08-03T06:34:18;21.80;80.50
5683;DHT22;2864;49.220;8.654;2022-08-03T06:36:44;21.90;79.90
5683;DHT22;2864;49.220;8.654;2022-08-03T06:39:09;22.10;80.70
5683;DHT22;2864;49.220;8.654;2022-08-03T06:41:37;22.20;79.80
5683;DHT22;2864;49.220;8.654;2022-08-03T06:44:02;22.30;80.10
5683;DHT22;2864;49.220;8.654;2022-08-03T06:46:28;22.50;79.30
5683;DHT22;2864;49.220;8.654;2022-08-03T06:56:40;23.00;78.40
5683;DHT22;2864;49.220;8.654;2022-08-03T06:59:06;23.20;78.60
5683;DHT22;2864;49.220;8.654;2022-08-03T07:01:31;23.20;78.90
5683;DHT22;2864;49.220;8.654;2022-08-03T07:03:57;23.30;77.50
5683;DHT22;2864;49.220;8.654;2022-08-03T07:06:22;23.40;77.30
5683;DHT22;2864;49.220;8.654;2022-08-03T07:08:49;24.30;78.10
5683;DHT22;2864;49.220;8.654;2022-08-03T07:11:14;23.60;77.00
5683;DHT22;2864;49.220;8.654;2022-08-03T07:13:40;23.70;76.60
5683;DHT22;2864;49.220;8.654;2022-08-03T07:16:05;23.80;77.00
5683;DHT22;2864;49.220;8.654;2022-08-03T07:18:31;23.90;78.00
5683;DHT22;2864;49.220;8.654;2022-08-03T07:20:57;24.00;76.90
5683;DHT22;2864;49.220;8.654;2022-08-03T07:23:23;24.10;76.40
5683;DHT22;2864;49.220;8.654;2022-08-03T07:25:49;24.30;76.10
5683;DHT22;2864;49.220;8.654;2022-08-03T07:28:16;24.40;76.30
5683;DHT22;2864;49.220;8.654;2022-08-03T07:30:41;24.40;75.70
5683;DHT22;2864;49.220;8.654;2022-08-03T07:33:07;24.50;75.70
5683;DHT22;2864;49.220;8.654;2022-08-03T07:35:32;24.60;75.50
5683;DHT22;2864;49.220;8.654;2022-08-03T07:37:58;24.70;74.90
5683;DHT22;2864;49.220;8.654;2022-08-03T07:40:24;25.00;75.60
5683;DHT22;2864;49.220;8.654;2022-08-03T07:42:49;24.90;74.40
5683;DHT22;2864;49.220;8.654;2022-08-03T07:45:15;25.00;74.30
5683;DHT22;2864;49.220;8.654;2022-08-03T07:47:40;25.40;74.70
5683;DHT22;2864;49.220;8.654;2022-08-03T07:50:06;25.30;74.10
5683;DHT22;2864;49.220;8.654;2022-08-03T07:52:32;25.40;72.70
5683;DHT22;2864;49.220;8.654;2022-08-03T07:55:14;26.20;73.40
5683;DHT22;2864;49.220;8.654;2022-08-03T07:57:40;25.70;72.80
5683;DHT22;2864;49.220;8.654;2022-08-03T08:00:11;25.80;72.10
5683;DHT22;2864;49.220;8.654;2022-08-03T08:02:38;25.90;72.20
5683;DHT22;2864;49.220;8.654;2022-08-03T08:08:26;26.30;71.90
5683;DHT22;2864;49.220;8.654;2022-08-03T08:10:51;26.40;70.50
5683;DHT22;2864;49.220;8.654;2022-08-03T08:13:17;26.60;69.80
5683;DHT22;2864;49.220;8.654;2022-08-03T08:15:42;26.70;69.90
5683;DHT22;2864;49.220;8.654;2022-08-03T08:18:08;27.20;70.30
5683;DHT22;2864;49.220;8.654;2022-08-03T08:20:34;26.90;68.60
5683;DHT22;2864;49.220;8.654;2022-08-03T08:23:04;27.00;68.40
5683;DHT22;2864;49.220;8.654;2022-08-03T08:25:30;27.10;68.40
5683;DHT22;2864;49.220;8.654;2022-08-03T08:27:57;27.30;68.60
5683;DHT22;2864;49.220;8.654;2022-08-03T08:30:26;27.50;68.00
5683;DHT22;2864;49.220;8.654;2022-08-03T08:32:51;27.50;67.50
5683;DHT22;2864;49.220;8.654;2022-08-03T08:35:17;27.70;67.60
5683;DHT22;2864;49.220;8.654;2022-08-03T08:37:43;27.70;66.60
5683;DHT22;2864;49.220;8.654;2022-08-03T08:40:09;27.80;66.50
5683;DHT22;2864;49.220;8.654;2022-08-03T08:42:40;27.90;66.40
5683;DHT22;2864;49.220;8.654;2022-08-03T08:45:06;28.10;66.00
5683;DHT22;2864;49.220;8.654;2022-08-03T08:47:38;28.40;65.80
5683;DHT22;2864;49.220;8.654;2022-08-03T08:50:05;28.50;64.70
5683;DHT22;2864;49.220;8.654;2022-08-03T08:52:33;28.60;64.20
5683;DHT22;2864;49.220;8.654;2022-08-03T08:55:01;28.70;63.70
5683;DHT22;2864;49.220;8.654;2022-08-03T08:57:30;28.80;63.80
5683;DHT22;2864;49.220;8.654;2022-08-03T08:59:56;28.80;63.30
5683;DHT22;2864;49.220;8.654;2022-08-03T09:02:23;28.90;63.70
5683;DHT22;2864;49.220;8.654;2022-08-03T09:04:49;29.20;63.20
5683;DHT22;2864;49.220;8.654;2022-08-03T09:07:15;29.30;62.40
5683;DHT22;2864;49.220;8.654;2022-08-03T09:09:42;29.50;61.50
5683;DHT22;2864;49.220;8.654;2022-08-03T09:12:07;29.80;61.40
5683;DHT22;2864;49.220;8.654;2022-08-03T09:14:33;29.90;60.60
5683;DHT22;2864;49.220;8.654;2022-08-03T09:17:01;30.00;60.60
5683;DHT22;2864;49.220;8.654;2022-08-03T09:19:28;30.10;58.70
5683;DHT22;2864;49.220;8.654;2022-08-03T09:22:13;30.30;58.80
5683;DHT22;2864;49.220;8.654;2022-08-03T09:25:03;30.30;58.60
5683;DHT22;2864;49.220;8.654;2022-08-03T09:27:43;30.60;58.70
5683;DHT22;2864;49.220;8.654;2022-08-03T09:30:17;30.80;57.90
5683;DHT22;2864;49.220;8.654;2022-08-03T09:32:43;30.80;57.60
5683;DHT22;2864;49.220;8.654;2022-08-03T09:35:11;30.80;58.20
5683;DHT22;2864;49.220;8.654;2022-08-03T09:37:37;31.00;57.60
5683;DHT22;2864;49.220;8.654;2022-08-03T09:40:04;31.20;56.90
5683;DHT22;2864;49.220;8.654;2022-08-03T09:42:29;31.40;57.00
5683;DHT22;2864;49.220;8.654;2022-08-03T09:44:55;31.50;56.90
5683;DHT22;2864;49.220;8.654;2022-08-03T09:47:33;31.70;57.40
5683;DHT22;2864;49.220;8.654;2022-08-03T09:50:08;31.90;57.30
5683;DHT22;2864;49.220;8.654;2022-08-03T09:52:34;31.80;57.20
5683;DHT22;2864;49.220;8.654;2022-08-03T09:55:02;31.80;56.90
5683;DHT22;2864;49.220;8.654;2022-08-03T09:57:31;31.80;57.00
5683;DHT22;2864;49.220;8.654;2022-08-03T10:02:38;32.10;56.90
5683;DHT22;2864;49.220;8.654;2022-08-03T10:05:05;32.20;57.10
5683;DHT22;2864;49.220;8.654;2022-08-03T10:07:44;32.30;56.70
5683;DHT22;2864;49.220;8.654;2022-08-03T10:10:11;32.20;56.90
5683;DHT22;2864;49.220;8.654;2022-08-03T10:12:37;32.20;56.80
5683;DHT22;2864;49.220;8.654;2022-08-03T10:15:04;32.30;56.60
5683;DHT22;2864;49.220;8.654;2022-08-03T10:17:30;32.30;56.50
5683;DHT22;2864;49.220;8.654;2022-08-03T10:19:55;32.40;56.70
5683;DHT22;2864;49.220;8.654;2022-08-03T10:22:26;32.50;56.80
5683;DHT22;2864;49.220;8.654;2022-08-03T10:24:58;32.70;56.60
5683;DHT22;2864;49.220;8.654;2022-08-03T10:27:25;32.80;56.50
5683;DHT22;2864;49.220;8.654;2022-08-03T10:29:54;33.10;56.90
5683;DHT22;2864;49.220;8.654;2022-08-03T10:32:48;33.30;56.00
5683;DHT22;2864;49.220;8.654;2022-08-03T10:35:18;33.40;56.10
5683;DHT22;2864;49.220;8.654;2022-08-03T10:37:51;33.60;56.20
5683;DHT22;2864;49.220;8.654;2022-08-03T10:40:21;33.60;56.00
5683;DHT22;2864;49.220;8.654;2022-08-03T10:42:49;33.90;56.20
5683;DHT22;2864;49.220;8.654;2022-08-03T10:45:21;34.10;55.90
5683;DHT22;2864;49.220;8.654;2022-08-03T10:47:49;34.10;56.00
5683;DHT22;2864;49.220;8.654;2022-08-03T10:50:18;34.00;55.50
5683;DHT22;2864;49.220;8.654;2022-08-03T10:55:36;34.00;55.50
5683;DHT22;2864;49.220;8.654;2022-08-03T11:01:09;34.40;55.30
5683;DHT22;2864;49.220;8.654;2022-08-03T11:06:21;34.40;54.80
5683;DHT22;2864;49.220;8.654;2022-08-03T11:08:50;33.90;54.80
5683;DHT22;2864;49.220;8.654;2022-08-03T11:11:39;33.80;55.10
5683;DHT22;2864;49.220;8.654;2022-08-03T11:14:08;34.20;55.00
5683;DHT22;2864;49.220;8.654;2022-08-03T11:16:36;34.40;54.80
5683;DHT22;2864;49.220;8.654;2022-08-03T11:19:07;34.50;54.50
5683;DHT22;2864;49.220;8.654;2022-08-03T11:35:10;34.50;54.10
5683;DHT22;2864;49.220;8.654;2022-08-03T11:46:09;35.00;52.50
5683;DHT22;2864;49.220;8.654;2022-08-03T11:48:48;35.20;52.50
5683;DHT22;2864;49.220;8.654;2022-08-03T11:51:26;35.30;52.20
5683;DHT22;2864;49.220;8.654;2022-08-03T11:53:54;35.40;52.10
5683;DHT22;2864;49.220;8.654;2022-08-03T11:56:20;35.50;51.10
5683;DHT22;2864;49.220;8.654;2022-08-03T11:58:50;35.40;51.10
5683;DHT22;2864;49.220;8.654;2022-08-03T12:01:19;35.40;50.30
5683;DHT22;2864;49.220;8.654;2022-08-03T12:03:45;35.70;51.10
5683;DHT22;2864;49.220;8.654;2022-08-03T12:06:12;35.60;50.40
5683;DHT22;2864;49.220;8.654;2022-08-03T12:08:40;35.30;50.90
5683;DHT22;2864;49.220;8.654;2022-08-03T12:11:07;35.50;51.20
5683;DHT22;2864;49.220;8.654;2022-08-03T12:13:38;35.80;50.80
5683;DHT22;2864;49.220;8.654;2022-08-03T12:16:04;35.50;51.00
5683;DHT22;2864;49.220;8.654;2022-08-03T12:18:29;35.80;50.90
5683;DHT22;2864;49.220;8.654;2022-08-03T12:21:04;36.00;51.30
5683;DHT22;2864;49.220;8.654;2022-08-03T12:23:30;35.40;50.80
5683;DHT22;2864;49.220;8.654;2022-08-03T12:26:01;35.50;51.10
5683;DHT22;2864;49.220;8.654;2022-08-03T12:28:27;35.50;51.10
5683;DHT22;2864;49.220;8.654;2022-08-03T12:30:53;35.70;51.10
5683;DHT22;2864;49.220;8.654;2022-08-03T12:33:25;36.20;52.10
5683;DHT22;2864;49.220;8.654;2022-08-03T12:36:03;36.60;51.10
5683;DHT22;2864;49.220;8.654;2022-08-03T12:38:31;36.70;50.00
5683;DHT22;2864;49.220;8.654;2022-08-03T12:40:59;36.80;50.00
5683;DHT22;2864;49.220;8.654;2022-08-03T12:43:25;37.00;49.80
5683;DHT22;2864;49.220;8.654;2022-08-03T12:45:51;37.20;49.80
5683;DHT22;2864;49.220;8.654;2022-08-03T12:48:16;37.30;49.80
5683;DHT22;2864;49.220;8.654;2022-08-03T12:50:42;37.00;49.90
5683;DHT22;2864;49.220;8.654;2022-08-03T12:53:09;36.50;49.80
5683;DHT22;2864;49.220;8.654;2022-08-03T12:55:37;37.30;49.70
5683;DHT22;2864;49.220;8.654;2022-08-03T12:58:05;37.70;49.20
5683;DHT22;2864;49.220;8.654;2022-08-03T13:00:31;38.00;49.10
5683;DHT22;2864;49.220;8.654;2022-08-03T13:03:06;38.50;49.00
5683;DHT22;2864;49.220;8.654;2022-08-03T13:05:43;39.10;48.30
5683;DHT22;2864;49.220;8.654;2022-08-03T13:08:23;39.10;48.00
5683;DHT22;2864;49.220;8.654;2022-08-03T13:10:49;38.90;48.40
5683;DHT22;2864;49.220;8.654;2022-08-03T13:13:14;39.60;48.00
5683;DHT22;2864;49.220;8.654;2022-08-03T13:15:41;39.80;48.30
5683;DHT22;2864;49.220;8.654;2022-08-03T13:18:07;40.40;47.70
5683;DHT22;2864;49.220;8.654;2022-08-03T13:20:34;40.20;46.70
5683;DHT22;2864;49.220;8.654;2022-08-03T13:23:00;40.10;47.00
5683;DHT22;2864;49.220;8.654;2022-08-03T13:25:26;40.10;47.30
5683;DHT22;2864;49.220;8.654;2022-08-03T13:27:51;39.90;47.20
5683;DHT22;2864;49.220;8.654;2022-08-03T13:30:17;39.70;47.50
5683;DHT22;2864;49.220;8.654;2022-08-03T13:32:43;39.90;47.10
5683;DHT22;2864;49.220;8.654;2022-08-03T13:35:10;40.00;47.10
5683;DHT22;2864;49.220;8.654;2022-08-03T13:37:36;40.40;47.00
5683;DHT22;2864;49.220;8.654;2022-08-03T13:40:04;40.70;47.00
5683;DHT22;2864;49.220;8.654;2022-08-03T13:42:32;41.30;46.90
5683;DHT22;2864;49.220;8.654;2022-08-03T13:44:59;41.50;46.30
5683;DHT22;2864;49.220;8.654;2022-08-03T13:47:25;41.80;45.80
5683;DHT22;2864;49.220;8.654;2022-08-03T13:49:51;42.00;45.50
5683;DHT22;2864;49.220;8.654;2022-08-03T13:52:18;41.50;45.90
5683;DHT22;2864;49.220;8.654;2022-08-03T13:54:43;41.30;45.90
5683;DHT22;2864;49.220;8.654;2022-08-03T13:57:09;40.70;45.80
5683;DHT22;2864;49.220;8.654;2022-08-03T13:59:36;40.80;46.10
5683;DHT22;2864;49.220;8.654;2022-08-03T14:05:11;41.80;45.70
5683;DHT22;2864;49.220;8.654;2022-08-03T14:07:37;41.90;45.50
5683;DHT22;2864;49.220;8.654;2022-08-03T14:10:03;41.30;45.70
5683;DHT22;2864;49.220;8.654;2022-08-03T14:12:28;41.20;46.20
5683;DHT22;2864;49.220;8.654;2022-08-03T14:14:54;42.00;45.40
5683;DHT22;2864;49.220;8.654;2022-08-03T14:17:19;42.80;44.90
5683;DHT22;2864;49.220;8.654;2022-08-03T14:19:45;42.90;45.30
5683;DHT22;2864;49.220;8.654;2022-08-03T14:22:10;43.40;45.20
5683;DHT22;2864;49.220;8.654;2022-08-03T14:24:36;43.60;44.50
5683;DHT22;2864;49.220;8.654;2022-08-03T14:27:01;42.90;44.70
5683;DHT22;2864;49.220;8.654;2022-08-03T14:29:27;43.20;44.20
5683;DHT22;2864;49.220;8.654;2022-08-03T14:31:52;43.80;45.00
5683;DHT22;2864;49.220;8.654;2022-08-03T14:34:18;43.50;44.00
5683;DHT22;2864;49.220;8.654;2022-08-03T14:36:43;43.90;44.10
5683;DHT22;2864;49.220;8.654;2022-08-03T14:39:11;44.30;44.60
5683;DHT22;2864;49.220;8.654;2022-08-03T14:41:37;44.90;43.80
5683;DHT22;2864;49.220;8.654;2022-08-03T14:44:03;45.10;43.80
5683;DHT22;2864;49.220;8.654;2022-08-03T14:46:30;44.50;43.70
5683;DHT22;2864;49.220;8.654;2022-08-03T14:48:56;44.20;43.60
5683;DHT22;2864;49.220;8.654;2022-08-03T14:51:22;44.10;43.50
5683;DHT22;2864;49.220;8.654;2022-08-03T14:53:48;43.90;44.10
5683;DHT22;2864;49.220;8.654;2022-08-03T14:56:14;44.00;44.30
5683;DHT22;2864;49.220;8.654;2022-08-03T14:58:39;43.80;44.10
5683;DHT22;2864;49.220;8.654;2022-08-03T15:01:05;44.10;43.70
5683;DHT22;2864;49.220;8.654;2022-08-03T15:03:31;43.80;44.40
5683;DHT22;2864;49.220;8.654;2022-08-03T15:05:57;44.30;43.70
5683;DHT22;2864;49.220;8.654;2022-08-03T15:08:24;43.90;43.60
5683;DHT22;2864;49.220;8.654;2022-08-03T15:10:50;43.90;43.60
5683;DHT22;2864;49.220;8.654;2022-08-03T15:13:16;43.90;43.70
5683;DHT22;2864;49.220;8.654;2022-08-03T15:15:42;43.70;43.60
5683;DHT22;2864;49.220;8.654;2022-08-03T15:18:08;43.30;43.70
5683;DHT22;2864;49.220;8.654;2022-08-03T15:20:33;44.50;43.20
5683;DHT22;2864;49.220;8.654;2022-08-03T15:22:59;45.10;43.10
5683;DHT22;2864;49.220;8.654;2022-08-03T15:25:24;45.00;43.10
5683;DHT22;2864;49.220;8.654;2022-08-03T15:27:51;45.20;42.90
5683;DHT22;2864;49.220;8.654;2022-08-03T15:30:16;45.80;43.00
5683;DHT22;2864;49.220;8.654;2022-08-03T15:32:42;46.10;42.90
5683;DHT22;2864;49.220;8.654;2022-08-03T15:35:08;46.70;42.70
5683;DHT22;2864;49.220;8.654;2022-08-03T15:37:33;46.00;42.70
5683;DHT22;2864;49.220;8.654;2022-08-03T15:39:59;45.20;42.50
5683;DHT22;2864;49.220;8.654;2022-08-03T15:42:24;45.50;42.50
5683;DHT22;2864;49.220;8.654;2022-08-03T15:44:50;45.90;42.60
5683;DHT22;2864;49.220;8.654;2022-08-03T15:47:15;46.40;42.70
5683;DHT22;2864;49.220;8.654;2022-08-03T15:49:41;47.00;42.30
5683;DHT22;2864;49.220;8.654;2022-08-03T15:52:06;47.40;42.20
5683;DHT22;2864;49.220;8.654;2022-08-03T15:54:32;47.50;42.10
5683;DHT22;2864;49.220;8.654;2022-08-03T15:56:57;47.10;41.60
5683;DHT22;2864;49.220;8.654;2022-08-03T15:59:23;47.30;41.40
5683;DHT22;2864;49.220;8.654;2022-08-03T16:01:48;48.00;41.60
5683;DHT22;2864;49.220;8.654;2022-08-03T16:04:14;47.40;41.70
5683;DHT22;2864;49.220;8.654;2022-08-03T16:06:40;46.60;41.90
5683;DHT22;2864;49.220;8.654;2022-08-03T16:09:06;46.60;41.60
5683;DHT22;2864;49.220;8.654;2022-08-03T16:11:32;46.80;41.60
5683;DHT22;2864;49.220;8.654;2022-08-03T16:13:58;46.30;41.30
5683;DHT22;2864;49.220;8.654;2022-08-03T16:16:24;46.30;41.20
5683;DHT22;2864;49.220;8.654;2022-08-03T16:18:49;45.80;41.80
5683;DHT22;2864;49.220;8.654;2022-08-03T16:21:15;46.30;41.90
5683;DHT22;2864;49.220;8.654;2022-08-03T16:23:41;46.80;42.10
5683;DHT22;2864;49.220;8.654;2022-08-03T16:26:07;47.10;42.40
5683;DHT22;2864;49.220;8.654;2022-08-03T16:28:33;46.20;42.00
5683;DHT22;2864;49.220;8.654;2022-08-03T16:31:02;46.50;42.00
5683;DHT22;2864;49.220;8.654;2022-08-03T16:33:28;47.00;41.70
5683;DHT22;2864;49.220;8.654;2022-08-03T16:35:54;47.10;41.40
5683;DHT22;2864;49.220;8.654;2022-08-03T16:38:20;45.60;41.70
5683;DHT22;2864;49.220;8.654;2022-08-03T16:40:47;45.80;41.70
5683;DHT22;2864;49.220;8.654;2022-08-03T16:43:17;45.60;41.50
5683;DHT22;2864;49.220;8.654;2022-08-03T16:45:43;45.50;41.70
5683;DHT22;2864;49.220;8.654;2022-08-03T16:48:09;45.70;41.60
5683;DHT22;2864;49.220;8.654;2022-08-03T16:50:35;46.00;41.50
5683;DHT22;2864;49.220;8.654;2022-08-03T16:53:08;45.60;41.60
5683;DHT22;2864;49.220;8.654;2022-08-03T16:55:35;45.70;42.20
5683;DHT22;2864;49.220;8.654;2022-08-03T16:58:02;45.70;41.70